GMME

Rabat-Salé Airport

Rabat, Morocco
METAR GMME 171630Z 36014KT CAVOK 24/17 Q1014 NOSIG
Observed Flight Rules
Aug-17 @ 16:30 UTC (20 minutes ago) Visual Flight Rules
Wind Visibility Clouds
360° at 14 knots 10,000+ meters
  • Clear skies
Temperatures Readings
Current 24°C / 75°F
Dewpoint 17°C / 63°F
Humidity 65%
Altimeter 29.94" Hg
Pressure 1014 hPa
Elevation 75
METAR GMME 171630Z 36014KT CAVOK 24/17 Q1014 NOSIG
Observed Flight Rules
Aug-17 @ 16:30 UTC
(20 minutes ago)
VFR
Wind Visibility
360° at 14 knots 10,000+ meters
Clouds
  • Clear skies
Temperature Dewpoint
24°C / 75°F 17°C / 63°F
Humidity Altimeter Pressure
65% 29.94" Hg 1014 hPa